sensor_id;sensor_type;location;lat;lon;timestamp;P1;durP1;ratioP1;P2;durP2;ratioP2
50789;SDS011;37287;47.554;7.844;2022-10-17T00:00:03;4.95;;;1.80;;
50789;SDS011;37287;47.554;7.844;2022-10-17T00:02:31;1.70;;;1.55;;
50789;SDS011;37287;47.554;7.844;2022-10-17T00:04:58;4.47;;;1.75;;
50789;SDS011;37287;47.554;7.844;2022-10-17T00:07:26;6.03;;;1.60;;
50789;SDS011;37287;47.554;7.844;2022-10-17T00:09:53;3.13;;;1.70;;
50789;SDS011;37287;47.554;7.844;2022-10-17T00:12:22;4.95;;;1.80;;
50789;SDS011;37287;47.554;7.844;2022-10-17T00:14:50;1.83;;;1.58;;
50789;SDS011;37287;47.554;7.844;2022-10-17T00:17:17;9.35;;;1.60;;
50789;SDS011;37287;47.554;7.844;2022-10-17T00:19:43;3.97;;;1.80;;
50789;SDS011;37287;47.554;7.844;2022-10-17T00:22:11;1.48;;;1.38;;
50789;SDS011;37287;47.554;7.844;2022-10-17T00:24:38;3.65;;;1.50;;
50789;SDS011;37287;47.554;7.844;2022-10-17T00:27:10;2.08;;;1.70;;
50789;SDS011;37287;47.554;7.844;2022-10-17T00:29:39;1.27;;;1.17;;
50789;SDS011;37287;47.554;7.844;2022-10-17T00:32:06;2.78;;;1.40;;
50789;SDS011;37287;47.554;7.844;2022-10-17T00:34:32;1.90;;;1.65;;
50789;SDS011;37287;47.554;7.844;2022-10-17T00:37:05;3.40;;;1.90;;
50789;SDS011;37287;47.554;7.844;2022-10-17T00:39:32;1.60;;;1.50;;
50789;SDS011;37287;47.554;7.844;2022-10-17T00:41:58;2.13;;;1.73;;
50789;SDS011;37287;47.554;7.844;2022-10-17T00:46:56;3.25;;;1.83;;
50789;SDS011;37287;47.554;7.844;2022-10-17T00:49:30;3.35;;;1.77;;
50789;SDS011;37287;47.554;7.844;2022-10-17T00:52:00;4.20;;;1.67;;
50789;SDS011;37287;47.554;7.844;2022-10-17T00:54:32;6.03;;;1.60;;
50789;SDS011;37287;47.554;7.844;2022-10-17T00:57:01;3.10;;;1.75;;
50789;SDS011;37287;47.554;7.844;2022-10-17T00:59:28;9.55;;;2.58;;
50789;SDS011;37287;47.554;7.844;2022-10-17T01:02:03;1.80;;;1.70;;
50789;SDS011;37287;47.554;7.844;2022-10-17T01:04:41;2.67;;;1.95;;
50789;SDS011;37287;47.554;7.844;2022-10-17T01:07:16;16.98;;;2.15;;
50789;SDS011;37287;47.554;7.844;2022-10-17T01:09:43;9.02;;;1.70;;
50789;SDS011;37287;47.554;7.844;2022-10-17T01:17:34;3.50;;;2.08;;
50789;SDS011;37287;47.554;7.844;2022-10-17T01:32:04;8.13;;;2.10;;
50789;SDS011;37287;47.554;7.844;2022-10-17T01:34:40;7.95;;;2.20;;
50789;SDS011;37287;47.554;7.844;2022-10-17T01:37:21;12.88;;;2.25;;
50789;SDS011;37287;47.554;7.844;2022-10-17T01:45:15;2.50;;;1.75;;
50789;SDS011;37287;47.554;7.844;2022-10-17T01:47:46;5.05;;;2.20;;
50789;SDS011;37287;47.554;7.844;2022-10-17T01:50:22;8.18;;;2.50;;
50789;SDS011;37287;47.554;7.844;2022-10-17T01:52:57;7.25;;;2.17;;
50789;SDS011;37287;47.554;7.844;2022-10-17T01:55:35;3.88;;;2.40;;
50789;SDS011;37287;47.554;7.844;2022-10-17T02:01:03;5.63;;;2.10;;
50789;SDS011;37287;47.554;7.844;2022-10-17T02:03:33;5.45;;;2.40;;
50789;SDS011;37287;47.554;7.844;2022-10-17T02:06:01;4.18;;;2.00;;
50789;SDS011;37287;47.554;7.844;2022-10-17T02:17:58;9.27;;;2.47;;
50789;SDS011;37287;47.554;7.844;2022-10-17T02:23:26;3.25;;;2.30;;
50789;SDS011;37287;47.554;7.844;2022-10-17T02:26:17;5.70;;;2.37;;
50789;SDS011;37287;47.554;7.844;2022-10-17T02:31:50;5.88;;;2.17;;
50789;SDS011;37287;47.554;7.844;2022-10-17T02:34:26;5.05;;;2.10;;
50789;SDS011;37287;47.554;7.844;2022-10-17T02:36:58;6.03;;;2.20;;
50789;SDS011;37287;47.554;7.844;2022-10-17T02:39:27;4.57;;;1.77;;
50789;SDS011;37287;47.554;7.844;2022-10-17T02:41:55;2.30;;;2.10;;
50789;SDS011;37287;47.554;7.844;2022-10-17T02:44:26;4.00;;;2.20;;
50789;SDS011;37287;47.554;7.844;2022-10-17T02:46:55;6.45;;;2.10;;
50789;SDS011;37287;47.554;7.844;2022-10-17T02:49:30;3.35;;;1.88;;
50789;SDS011;37287;47.554;7.844;2022-10-17T02:52:05;4.03;;;1.95;;
50789;SDS011;37287;47.554;7.844;2022-10-17T02:54:42;7.72;;;2.30;;
50789;SDS011;37287;47.554;7.844;2022-10-17T02:58:03;7.47;;;2.27;;
50789;SDS011;37287;47.554;7.844;2022-10-17T03:00:21;4.03;;;2.50;;
50789;SDS011;37287;47.554;7.844;2022-10-17T03:02:52;8.35;;;2.65;;
50789;SDS011;37287;47.554;7.844;2022-10-17T03:05:23;4.97;;;2.05;;
50789;SDS011;37287;47.554;7.844;2022-10-17T03:07:56;4.00;;;2.20;;
50789;SDS011;37287;47.554;7.844;2022-10-17T03:10:23;4.43;;;1.90;;
50789;SDS011;37287;47.554;7.844;2022-10-17T03:12:49;2.33;;;2.13;;
50789;SDS011;37287;47.554;7.844;2022-10-17T03:15:17;6.15;;;1.83;;
50789;SDS011;37287;47.554;7.844;2022-10-17T03:17:44;4.80;;;2.28;;
50789;SDS011;37287;47.554;7.844;2022-10-17T03:20:16;2.70;;;2.13;;
50789;SDS011;37287;47.554;7.844;2022-10-17T03:22:49;6.90;;;2.53;;
50789;SDS011;37287;47.554;7.844;2022-10-17T03:25:15;6.97;;;2.33;;
50789;SDS011;37287;47.554;7.844;2022-10-17T03:27:42;9.75;;;3.08;;
50789;SDS011;37287;47.554;7.844;2022-10-17T03:30:09;4.05;;;2.20;;
50789;SDS011;37287;47.554;7.844;2022-10-17T03:32:36;5.53;;;2.47;;
50789;SDS011;37287;47.554;7.844;2022-10-17T03:35:02;10.85;;;2.70;;
50789;SDS011;37287;47.554;7.844;2022-10-17T03:37:40;5.03;;;2.75;;
50789;SDS011;37287;47.554;7.844;2022-10-17T03:40:06;2.45;;;2.25;;
50789;SDS011;37287;47.554;7.844;2022-10-17T03:42:33;11.25;;;2.83;;
50789;SDS011;37287;47.554;7.844;2022-10-17T03:45:00;11.35;;;3.63;;
50789;SDS011;37287;47.554;7.844;2022-10-17T03:47:27;8.88;;;2.90;;
50789;SDS011;37287;47.554;7.844;2022-10-17T03:49:54;3.65;;;2.67;;
50789;SDS011;37287;47.554;7.844;2022-10-17T03:52:21;6.35;;;2.53;;
50789;SDS011;37287;47.554;7.844;2022-10-17T03:54:48;4.63;;;2.85;;
50789;SDS011;37287;47.554;7.844;2022-10-17T03:57:16;7.43;;;2.55;;
50789;SDS011;37287;47.554;7.844;2022-10-17T03:59:43;4.28;;;2.65;;
50789;SDS011;37287;47.554;7.844;2022-10-17T04:02:10;5.78;;;2.35;;
50789;SDS011;37287;47.554;7.844;2022-10-17T04:04:36;2.83;;;2.30;;
50789;SDS011;37287;47.554;7.844;2022-10-17T04:07:03;2.72;;;2.38;;
50789;SDS011;37287;47.554;7.844;2022-10-17T04:09:29;6.63;;;2.60;;
50789;SDS011;37287;47.554;7.844;2022-10-17T04:11:56;5.25;;;2.15;;
50789;SDS011;37287;47.554;7.844;2022-10-17T04:14:24;5.00;;;2.45;;
50789;SDS011;37287;47.554;7.844;2022-10-17T04:16:51;3.05;;;2.47;;
50789;SDS011;37287;47.554;7.844;2022-10-17T04:19:18;7.43;;;2.45;;
50789;SDS011;37287;47.554;7.844;2022-10-17T04:21:47;4.40;;;2.58;;
50789;SDS011;37287;47.554;7.844;2022-10-17T04:24:13;6.78;;;2.60;;
50789;SDS011;37287;47.554;7.844;2022-10-17T04:26:40;6.60;;;3.33;;
50789;SDS011;37287;47.554;7.844;2022-10-17T04:29:08;7.00;;;2.72;;
50789;SDS011;37287;47.554;7.844;2022-10-17T04:31:36;9.25;;;3.20;;
50789;SDS011;37287;47.554;7.844;2022-10-17T04:34:03;4.07;;;2.78;;
50789;SDS011;37287;47.554;7.844;2022-10-17T04:36:29;4.70;;;2.97;;
50789;SDS011;37287;47.554;7.844;2022-10-17T04:38:56;9.10;;;3.03;;
50789;SDS011;37287;47.554;7.844;2022-10-17T04:41:22;11.20;;;2.67;;
50789;SDS011;37287;47.554;7.844;2022-10-17T04:43:56;5.07;;;2.70;;
50789;SDS011;37287;47.554;7.844;2022-10-17T04:46:23;6.45;;;2.60;;
50789;SDS011;37287;47.554;7.844;2022-10-17T04:48:49;3.95;;;2.55;;
50789;SDS011;37287;47.554;7.844;2022-10-17T04:51:17;3.00;;;2.30;;
50789;SDS011;37287;47.554;7.844;2022-10-17T04:53:48;3.00;;;2.17;;
50789;SDS011;37287;47.554;7.844;2022-10-17T04:56:17;7.60;;;2.35;;
50789;SDS011;37287;47.554;7.844;2022-10-17T04:58:47;5.03;;;2.53;;
50789;SDS011;37287;47.554;7.844;2022-10-17T05:01:17;6.55;;;2.35;;
50789;SDS011;37287;47.554;7.844;2022-10-17T05:03:48;6.95;;;2.30;;
50789;SDS011;37287;47.554;7.844;2022-10-17T05:06:20;2.50;;;2.30;;
50789;SDS011;37287;47.554;7.844;2022-10-17T05:08:49;2.90;;;2.40;;
50789;SDS011;37287;47.554;7.844;2022-10-17T05:11:17;5.13;;;2.20;;
50789;SDS011;37287;47.554;7.844;2022-10-17T05:13:58;7.38;;;2.50;;
50789;SDS011;37287;47.554;7.844;2022-10-17T05:16:26;4.75;;;2.58;;
50789;SDS011;37287;47.554;7.844;2022-10-17T05:18:56;8.65;;;2.50;;
50789;SDS011;37287;47.554;7.844;2022-10-17T05:21:25;8.23;;;2.90;;
50789;SDS011;37287;47.554;7.844;2022-10-17T05:23:52;5.57;;;2.28;;
50789;SDS011;37287;47.554;7.844;2022-10-17T05:26:19;4.60;;;2.45;;
50789;SDS011;37287;47.554;7.844;2022-10-17T05:28:46;3.97;;;2.30;;
50789;SDS011;37287;47.554;7.844;2022-10-17T05:31:13;3.95;;;2.63;;
50789;SDS011;37287;47.554;7.844;2022-10-17T05:33:40;7.70;;;2.42;;
50789;SDS011;37287;47.554;7.844;2022-10-17T05:36:07;2.45;;;2.08;;
50789;SDS011;37287;47.554;7.844;2022-10-17T05:38:34;3.22;;;2.10;;
50789;SDS011;37287;47.554;7.844;2022-10-17T05:41:02;2.58;;;2.30;;
50789;SDS011;37287;47.554;7.844;2022-10-17T05:43:30;5.57;;;2.28;;
50789;SDS011;37287;47.554;7.844;2022-10-17T05:45:58;12.10;;;2.58;;
50789;SDS011;37287;47.554;7.844;2022-10-17T05:48:30;5.05;;;2.50;;
50789;SDS011;37287;47.554;7.844;2022-10-17T05:50:58;5.13;;;2.38;;
50789;SDS011;37287;47.554;7.844;2022-10-17T05:53:25;3.28;;;2.30;;
50789;SDS011;37287;47.554;7.844;2022-10-17T05:55:58;3.08;;;2.28;;
50789;SDS011;37287;47.554;7.844;2022-10-17T05:58:26;3.97;;;2.65;;
50789;SDS011;37287;47.554;7.844;2022-10-17T06:01:13;10.63;;;2.80;;
50789;SDS011;37287;47.554;7.844;2022-10-17T06:03:42;2.95;;;2.10;;
50789;SDS011;37287;47.554;7.844;2022-10-17T06:06:11;5.78;;;2.30;;
50789;SDS011;37287;47.554;7.844;2022-10-17T06:08:39;8.43;;;2.38;;
50789;SDS011;37287;47.554;7.844;2022-10-17T06:11:06;4.78;;;2.25;;
50789;SDS011;37287;47.554;7.844;2022-10-17T06:13:36;4.85;;;2.33;;
50789;SDS011;37287;47.554;7.844;2022-10-17T06:16:03;2.35;;;2.15;;
50789;SDS011;37287;47.554;7.844;2022-10-17T06:18:30;7.57;;;2.22;;
50789;SDS011;37287;47.554;7.844;2022-10-17T06:21:07;5.03;;;2.40;;
50789;SDS011;37287;47.554;7.844;2022-10-17T06:23:37;8.85;;;2.75;;
50789;SDS011;37287;47.554;7.844;2022-10-17T06:26:05;3.10;;;2.00;;
50789;SDS011;37287;47.554;7.844;2022-10-17T06:28:32;4.93;;;2.15;;
50789;SDS011;37287;47.554;7.844;2022-10-17T06:31:08;4.85;;;1.90;;
50789;SDS011;37287;47.554;7.844;2022-10-17T06:33:36;3.70;;;2.10;;
50789;SDS011;37287;47.554;7.844;2022-10-17T06:36:05;4.13;;;2.45;;
50789;SDS011;37287;47.554;7.844;2022-10-17T06:38:33;8.23;;;2.47;;
50789;SDS011;37287;47.554;7.844;2022-10-17T06:41:08;5.72;;;2.53;;
50789;SDS011;37287;47.554;7.844;2022-10-17T06:43:39;8.35;;;2.40;;
50789;SDS011;37287;47.554;7.844;2022-10-17T06:46:08;7.60;;;2.40;;
50789;SDS011;37287;47.554;7.844;2022-10-17T06:48:35;11.93;;;2.53;;
50789;SDS011;37287;47.554;7.844;2022-10-17T06:51:08;6.30;;;2.20;;
50789;SDS011;37287;47.554;7.844;2022-10-17T06:53:37;3.40;;;2.13;;
50789;SDS011;37287;47.554;7.844;2022-10-17T06:56:06;3.17;;;2.00;;
50789;SDS011;37287;47.554;7.844;2022-10-17T06:58:34;3.22;;;2.05;;
50789;SDS011;37287;47.554;7.844;2022-10-17T07:01:08;3.97;;;2.22;;
50789;SDS011;37287;47.554;7.844;2022-10-17T07:03:42;5.57;;;2.20;;
50789;SDS011;37287;47.554;7.844;2022-10-17T07:06:13;11.10;;;2.67;;
50789;SDS011;37287;47.554;7.844;2022-10-17T07:08:43;3.72;;;2.05;;
50789;SDS011;37287;47.554;7.844;2022-10-17T07:11:11;6.07;;;2.10;;
50789;SDS011;37287;47.554;7.844;2022-10-17T07:13:39;7.35;;;2.55;;
50789;SDS011;37287;47.554;7.844;2022-10-17T07:16:05;7.47;;;1.90;;
50789;SDS011;37287;47.554;7.844;2022-10-17T07:18:43;3.25;;;2.00;;
50789;SDS011;37287;47.554;7.844;2022-10-17T07:21:09;5.15;;;2.10;;
50789;SDS011;37287;47.554;7.844;2022-10-17T07:23:36;5.15;;;2.22;;
50789;SDS011;37287;47.554;7.844;2022-10-17T07:26:05;4.72;;;2.03;;
50789;SDS011;37287;47.554;7.844;2022-10-17T07:28:34;6.07;;;1.90;;
50789;SDS011;37287;47.554;7.844;2022-10-17T07:31:03;3.20;;;1.85;;
50789;SDS011;37287;47.554;7.844;2022-10-17T07:33:31;2.75;;;1.70;;
50789;SDS011;37287;47.554;7.844;2022-10-17T07:35:58;2.90;;;1.88;;
50789;SDS011;37287;47.554;7.844;2022-10-17T07:38:26;2.30;;;1.80;;
50789;SDS011;37287;47.554;7.844;2022-10-17T07:40:54;4.47;;;1.98;;
50789;SDS011;37287;47.554;7.844;2022-10-17T07:43:22;4.85;;;1.90;;
50789;SDS011;37287;47.554;7.844;2022-10-17T07:45:50;4.57;;;2.00;;
50789;SDS011;37287;47.554;7.844;2022-10-17T07:48:23;3.83;;;2.10;;
50789;SDS011;37287;47.554;7.844;2022-10-17T07:50:50;2.38;;;1.80;;
50789;SDS011;37287;47.554;7.844;2022-10-17T07:53:17;3.25;;;2.00;;
50789;SDS011;37287;47.554;7.844;2022-10-17T07:55:44;7.65;;;1.70;;
50789;SDS011;37287;47.554;7.844;2022-10-17T07:58:12;2.53;;;1.85;;
50789;SDS011;37287;47.554;7.844;2022-10-17T08:00:39;2.67;;;1.63;;
50789;SDS011;37287;47.554;7.844;2022-10-17T08:03:08;9.35;;;1.80;;
50789;SDS011;37287;47.554;7.844;2022-10-17T08:05:36;2.67;;;1.83;;
50789;SDS011;37287;47.554;7.844;2022-10-17T08:08:02;1.90;;;1.33;;
50789;SDS011;37287;47.554;7.844;2022-10-17T08:10:31;1.75;;;1.65;;
50789;SDS011;37287;47.554;7.844;2022-10-17T08:13:02;5.63;;;1.85;;
50789;SDS011;37287;47.554;7.844;2022-10-17T08:15:28;4.22;;;2.00;;
50789;SDS011;37287;47.554;7.844;2022-10-17T08:17:57;11.23;;;3.15;;
50789;SDS011;37287;47.554;7.844;2022-10-17T08:20:24;4.85;;;2.00;;
50789;SDS011;37287;47.554;7.844;2022-10-17T08:22:52;7.00;;;2.15;;
50789;SDS011;37287;47.554;7.844;2022-10-17T08:25:21;5.80;;;2.20;;
50789;SDS011;37287;47.554;7.844;2022-10-17T08:27:48;8.20;;;1.90;;
50789;SDS011;37287;47.554;7.844;2022-10-17T08:30:15;6.03;;;1.75;;
50789;SDS011;37287;47.554;7.844;2022-10-17T08:32:42;4.65;;;1.90;;
50789;SDS011;37287;47.554;7.844;2022-10-17T08:35:09;3.33;;;1.88;;
50789;SDS011;37287;47.554;7.844;2022-10-17T08:37:39;6.13;;;1.90;;
50789;SDS011;37287;47.554;7.844;2022-10-17T08:40:10;7.10;;;1.85;;
50789;SDS011;37287;47.554;7.844;2022-10-17T08:45:49;7.70;;;2.35;;
50789;SDS011;37287;47.554;7.844;2022-10-17T08:48:20;5.15;;;1.70;;
50789;SDS011;37287;47.554;7.844;2022-10-17T08:50:56;5.00;;;1.85;;
50789;SDS011;37287;47.554;7.844;2022-10-17T08:56:20;2.95;;;2.05;;
50789;SDS011;37287;47.554;7.844;2022-10-17T08:59:10;6.47;;;2.00;;
50789;SDS011;37287;47.554;7.844;2022-10-17T09:01:45;4.55;;;2.10;;
50789;SDS011;37287;47.554;7.844;2022-10-17T09:09:33;1.83;;;1.67;;
50789;SDS011;37287;47.554;7.844;2022-10-17T09:14:49;4.72;;;1.90;;
50789;SDS011;37287;47.554;7.844;2022-10-17T09:20:32;5.35;;;2.13;;
50789;SDS011;37287;47.554;7.844;2022-10-17T09:28:13;7.03;;;1.70;;
50789;SDS011;37287;47.554;7.844;2022-10-17T09:30:46;2.22;;;2.03;;
50789;SDS011;37287;47.554;7.844;2022-10-17T09:33:20;2.50;;;1.80;;
50789;SDS011;37287;47.554;7.844;2022-10-17T09:36:21;3.65;;;1.73;;
50789;SDS011;37287;47.554;7.844;2022-10-17T09:39:05;1.98;;;1.80;;
50789;SDS011;37287;47.554;7.844;2022-10-17T09:41:39;5.47;;;2.10;;
50789;SDS011;37287;47.554;7.844;2022-10-17T09:44:14;4.97;;;2.00;;
50789;SDS011;37287;47.554;7.844;2022-10-17T09:49:28;5.65;;;2.17;;
50789;SDS011;37287;47.554;7.844;2022-10-17T09:51:59;5.57;;;2.15;;
50789;SDS011;37287;47.554;7.844;2022-10-17T09:54:32;3.55;;;1.80;;
50789;SDS011;37287;47.554;7.844;2022-10-17T09:57:07;5.03;;;2.20;;
50789;SDS011;37287;47.554;7.844;2022-10-17T09:59:37;5.00;;;1.83;;
50789;SDS011;37287;47.554;7.844;2022-10-17T10:02:07;1.90;;;1.70;;
50789;SDS011;37287;47.554;7.844;2022-10-17T10:04:54;2.08;;;1.88;;
50789;SDS011;37287;47.554;7.844;2022-10-17T10:07:32;3.85;;;1.80;;
50789;SDS011;37287;47.554;7.844;2022-10-17T10:10:03;7.72;;;1.80;;
50789;SDS011;37287;47.554;7.844;2022-10-17T10:13:00;5.82;;;2.00;;
50789;SDS011;37287;47.554;7.844;2022-10-17T10:15:42;3.85;;;1.80;;
50789;SDS011;37287;47.554;7.844;2022-10-17T10:18:30;4.20;;;2.00;;
50789;SDS011;37287;47.554;7.844;2022-10-17T10:21:02;3.47;;;2.00;;
50789;SDS011;37287;47.554;7.844;2022-10-17T10:23:39;5.72;;;1.92;;
50789;SDS011;37287;47.554;7.844;2022-10-17T10:26:22;7.53;;;2.50;;
50789;SDS011;37287;47.554;7.844;2022-10-17T10:28:52;5.28;;;2.17;;
50789;SDS011;37287;47.554;7.844;2022-10-17T10:31:27;2.22;;;2.03;;
50789;SDS011;37287;47.554;7.844;2022-10-17T10:33:58;1.98;;;1.70;;
50789;SDS011;37287;47.554;7.844;2022-10-17T10:39:35;4.40;;;1.70;;
50789;SDS011;37287;47.554;7.844;2022-10-17T10:44:55;10.30;;;1.80;;
50789;SDS011;37287;47.554;7.844;2022-10-17T10:47:28;8.05;;;2.10;;
50789;SDS011;37287;47.554;7.844;2022-10-17T10:56:49;6.60;;;2.00;;
50789;SDS011;37287;47.554;7.844;2022-10-17T10:59:28;4.65;;;1.92;;
50789;SDS011;37287;47.554;7.844;2022-10-17T11:02:10;2.38;;;1.95;;
50789;SDS011;37287;47.554;7.844;2022-10-17T11:05:12;6.65;;;1.70;;
50789;SDS011;37287;47.554;7.844;2022-10-17T11:07:59;10.52;;;1.95;;
50789;SDS011;37287;47.554;7.844;2022-10-17T11:10:57;2.90;;;1.90;;
50789;SDS011;37287;47.554;7.844;2022-10-17T11:13:53;6.82;;;1.90;;
50789;SDS011;37287;47.554;7.844;2022-10-17T11:18:57;3.78;;;1.70;;
50789;SDS011;37287;47.554;7.844;2022-10-17T11:21:42;7.57;;;1.83;;
50789;SDS011;37287;47.554;7.844;2022-10-17T11:24:16;2.08;;;1.80;;
50789;SDS011;37287;47.554;7.844;2022-10-17T11:26:49;1.85;;;1.63;;
50789;SDS011;37287;47.554;7.844;2022-10-17T11:29:22;2.03;;;1.80;;
50789;SDS011;37287;47.554;7.844;2022-10-17T11:31:55;1.77;;;1.60;;
50789;SDS011;37287;47.554;7.844;2022-10-17T11:34:39;4.70;;;1.92;;
50789;SDS011;37287;47.554;7.844;2022-10-17T11:37:17;2.15;;;1.70;;
50789;SDS011;37287;47.554;7.844;2022-10-17T11:42:58;4.13;;;1.80;;
50789;SDS011;37287;47.554;7.844;2022-10-17T11:45:28;5.25;;;1.88;;
50789;SDS011;37287;47.554;7.844;2022-10-17T11:48:05;5.72;;;1.88;;
50789;SDS011;37287;47.554;7.844;2022-10-17T11:50:41;6.60;;;1.90;;
50789;SDS011;37287;47.554;7.844;2022-10-17T11:58:43;4.22;;;1.90;;
50789;SDS011;37287;47.554;7.844;2022-10-17T12:01:23;2.70;;;1.60;;
50789;SDS011;37287;47.554;7.844;2022-10-17T12:09:42;4.72;;;2.30;;
50789;SDS011;37287;47.554;7.844;2022-10-17T12:12:24;3.53;;;1.90;;
50789;SDS011;37287;47.554;7.844;2022-10-17T12:17:37;6.63;;;2.00;;
50789;SDS011;37287;47.554;7.844;2022-10-17T12:20:40;4.07;;;2.17;;
50789;SDS011;37287;47.554;7.844;2022-10-17T12:25:33;7.05;;;1.77;;
50789;SDS011;37287;47.554;7.844;2022-10-17T12:28:10;12.95;;;1.75;;
50789;SDS011;37287;47.554;7.844;2022-10-17T12:31:02;6.13;;;1.80;;
50789;SDS011;37287;47.554;7.844;2022-10-17T12:41:15;1.77;;;1.40;;
50789;SDS011;37287;47.554;7.844;2022-10-17T12:49:47;5.70;;;1.90;;
50789;SDS011;37287;47.554;7.844;2022-10-17T12:57:43;4.63;;;1.50;;
50789;SDS011;37287;47.554;7.844;2022-10-17T13:00:21;5.28;;;1.50;;
50789;SDS011;37287;47.554;7.844;2022-10-17T13:03:15;2.47;;;1.30;;
50789;SDS011;37287;47.554;7.844;2022-10-17T13:05:53;7.15;;;1.50;;
50789;SDS011;37287;47.554;7.844;2022-10-17T13:10:57;4.20;;;1.40;;
50789;SDS011;37287;47.554;7.844;2022-10-17T13:16:04;2.90;;;1.50;;
50789;SDS011;37287;47.554;7.844;2022-10-17T13:18:34;2.17;;;1.25;;
50789;SDS011;37287;47.554;7.844;2022-10-17T13:23:36;7.57;;;1.55;;
50789;SDS011;37287;47.554;7.844;2022-10-17T13:28:31;3.00;;;1.50;;
50789;SDS011;37287;47.554;7.844;2022-10-17T13:31:04;4.38;;;1.23;;
50789;SDS011;37287;47.554;7.844;2022-10-17T13:33:35;2.00;;;1.15;;
50789;SDS011;37287;47.554;7.844;2022-10-17T13:36:06;2.20;;;1.33;;
50789;SDS011;37287;47.554;7.844;2022-10-17T13:38:42;2.25;;;1.52;;
50789;SDS011;37287;47.554;7.844;2022-10-17T13:41:14;5.82;;;1.77;;
50789;SDS011;37287;47.554;7.844;2022-10-17T13:44:02;2.35;;;1.50;;
50789;SDS011;37287;47.554;7.844;2022-10-17T13:46:37;2.20;;;1.45;;
50789;SDS011;37287;47.554;7.844;2022-10-17T13:52:00;2.20;;;1.40;;
50789;SDS011;37287;47.554;7.844;2022-10-17T13:57:00;2.65;;;1.30;;
50789;SDS011;37287;47.554;7.844;2022-10-17T13:59:36;1.75;;;1.27;;
50789;SDS011;37287;47.554;7.844;2022-10-17T14:02:05;3.10;;;1.52;;
50789;SDS011;37287;47.554;7.844;2022-10-17T14:04:40;2.50;;;1.40;;
50789;SDS011;37287;47.554;7.844;2022-10-17T14:07:30;3.75;;;1.23;;
50789;SDS011;37287;47.554;7.844;2022-10-17T14:10:24;3.22;;;1.45;;
50789;SDS011;37287;47.554;7.844;2022-10-17T14:12:52;2.70;;;1.50;;
50789;SDS011;37287;47.554;7.844;2022-10-17T14:15:23;6.07;;;1.48;;
50789;SDS011;37287;47.554;7.844;2022-10-17T14:17:54;3.78;;;1.50;;
50789;SDS011;37287;47.554;7.844;2022-10-17T14:20:24;4.03;;;1.60;;
50789;SDS011;37287;47.554;7.844;2022-10-17T14:24:11;2.35;;;1.58;;
50789;SDS011;37287;47.554;7.844;2022-10-17T14:26:11;4.10;;;1.40;;
50789;SDS011;37287;47.554;7.844;2022-10-17T14:28:40;3.03;;;1.20;;
50789;SDS011;37287;47.554;7.844;2022-10-17T14:33:45;6.63;;;1.40;;
50789;SDS011;37287;47.554;7.844;2022-10-17T14:36:16;4.90;;;1.40;;
50789;SDS011;37287;47.554;7.844;2022-10-17T14:38:49;2.30;;;1.52;;
50789;SDS011;37287;47.554;7.844;2022-10-17T14:41:21;1.75;;;1.30;;
50789;SDS011;37287;47.554;7.844;2022-10-17T14:44:20;5.53;;;1.23;;
50789;SDS011;37287;47.554;7.844;2022-10-17T14:46:52;2.38;;;1.20;;
50789;SDS011;37287;47.554;7.844;2022-10-17T14:49:25;3.45;;;1.30;;
50789;SDS011;37287;47.554;7.844;2022-10-17T14:54:47;1.20;;;0.93;;
50789;SDS011;37287;47.554;7.844;2022-10-17T14:59:49;5.53;;;1.25;;
50789;SDS011;37287;47.554;7.844;2022-10-17T15:02:21;1.70;;;1.10;;
50789;SDS011;37287;47.554;7.844;2022-10-17T15:04:55;1.33;;;1.23;;
50789;SDS011;37287;47.554;7.844;2022-10-17T15:07:25;2.03;;;1.15;;
50789;SDS011;37287;47.554;7.844;2022-10-17T15:09:54;3.75;;;2.30;;
50789;SDS011;37287;47.554;7.844;2022-10-17T15:12:22;2.28;;;1.40;;
50789;SDS011;37287;47.554;7.844;2022-10-17T15:14:50;10.20;;;1.40;;
50789;SDS011;37287;47.554;7.844;2022-10-17T15:17:19;3.20;;;2.80;;
50789;SDS011;37287;47.554;7.844;2022-10-17T15:19:51;1.90;;;1.70;;
50789;SDS011;37287;47.554;7.844;2022-10-17T15:22:18;4.10;;;1.45;;
50789;SDS011;37287;47.554;7.844;2022-10-17T15:24:44;2.95;;;1.40;;
50789;SDS011;37287;47.554;7.844;2022-10-17T15:27:22;2.03;;;1.17;;
50789;SDS011;37287;47.554;7.844;2022-10-17T15:29:50;4.55;;;1.20;;
50789;SDS011;37287;47.554;7.844;2022-10-17T15:32:17;2.85;;;1.20;;
50789;SDS011;37287;47.554;7.844;2022-10-17T15:34:45;3.85;;;1.23;;
50789;SDS011;37287;47.554;7.844;2022-10-17T15:37:16;1.77;;;1.20;;
50789;SDS011;37287;47.554;7.844;2022-10-17T15:39:50;4.30;;;1.30;;
50789;SDS011;37287;47.554;7.844;2022-10-17T15:42:20;1.35;;;1.10;;
50789;SDS011;37287;47.554;7.844;2022-10-17T15:44:48;1.65;;;0.98;;
50789;SDS011;37287;47.554;7.844;2022-10-17T15:47:33;3.72;;;1.00;;
50789;SDS011;37287;47.554;7.844;2022-10-17T15:50:03;6.55;;;2.50;;
50789;SDS011;37287;47.554;7.844;2022-10-17T15:52:31;12.95;;;5.30;;
50789;SDS011;37287;47.554;7.844;2022-10-17T15:54:58;5.22;;;3.83;;
50789;SDS011;37287;47.554;7.844;2022-10-17T15:57:32;7.00;;;3.47;;
50789;SDS011;37287;47.554;7.844;2022-10-17T16:00:01;6.30;;;4.88;;
50789;SDS011;37287;47.554;7.844;2022-10-17T16:02:29;6.43;;;4.10;;
50789;SDS011;37287;47.554;7.844;2022-10-17T16:04:56;5.30;;;3.40;;
50789;SDS011;37287;47.554;7.844;2022-10-17T16:07:22;8.65;;;2.40;;
50789;SDS011;37287;47.554;7.844;2022-10-17T16:09:51;5.25;;;2.20;;
50789;SDS011;37287;47.554;7.844;2022-10-17T16:12:22;5.05;;;1.90;;
50789;SDS011;37287;47.554;7.844;2022-10-17T16:14:55;4.85;;;1.50;;
50789;SDS011;37287;47.554;7.844;2022-10-17T16:17:22;4.55;;;1.42;;
50789;SDS011;37287;47.554;7.844;2022-10-17T16:19:49;8.00;;;1.63;;
50789;SDS011;37287;47.554;7.844;2022-10-17T16:22:31;9.52;;;1.60;;
50789;SDS011;37287;47.554;7.844;2022-10-17T16:25:02;1.83;;;1.50;;
50789;SDS011;37287;47.554;7.844;2022-10-17T16:27:44;4.65;;;1.65;;
50789;SDS011;37287;47.554;7.844;2022-10-17T16:30:13;5.80;;;1.85;;
50789;SDS011;37287;47.554;7.844;2022-10-17T16:32:40;3.22;;;1.60;;
50789;SDS011;37287;47.554;7.844;2022-10-17T16:35:10;6.70;;;1.50;;
50789;SDS011;37287;47.554;7.844;2022-10-17T16:37:45;4.03;;;1.60;;
50789;SDS011;37287;47.554;7.844;2022-10-17T16:40:23;5.65;;;1.60;;
50789;SDS011;37287;47.554;7.844;2022-10-17T16:42:50;3.55;;;1.65;;
50789;SDS011;37287;47.554;7.844;2022-10-17T16:45:18;5.72;;;1.60;;
50789;SDS011;37287;47.554;7.844;2022-10-17T16:47:47;1.55;;;1.33;;
50789;SDS011;37287;47.554;7.844;2022-10-17T16:50:14;4.55;;;1.70;;
50789;SDS011;37287;47.554;7.844;2022-10-17T16:52:41;4.85;;;1.50;;
50789;SDS011;37287;47.554;7.844;2022-10-17T16:55:10;7.20;;;1.70;;
50789;SDS011;37287;47.554;7.844;2022-10-17T16:57:36;4.05;;;1.63;;
50789;SDS011;37287;47.554;7.844;2022-10-17T17:00:04;3.50;;;1.73;;
50789;SDS011;37287;47.554;7.844;2022-10-17T17:02:33;1.80;;;1.40;;
50789;SDS011;37287;47.554;7.844;2022-10-17T17:05:00;7.32;;;1.73;;
50789;SDS011;37287;47.554;7.844;2022-10-17T17:07:26;5.80;;;1.80;;
50789;SDS011;37287;47.554;7.844;2022-10-17T17:09:55;2.20;;;1.83;;
50789;SDS011;37287;47.554;7.844;2022-10-17T17:12:22;1.90;;;1.58;;
50789;SDS011;37287;47.554;7.844;2022-10-17T17:14:50;4.88;;;1.70;;
50789;SDS011;37287;47.554;7.844;2022-10-17T17:17:19;2.55;;;1.67;;
50789;SDS011;37287;47.554;7.844;2022-10-17T17:20:06;3.95;;;1.50;;
50789;SDS011;37287;47.554;7.844;2022-10-17T17:22:33;5.65;;;1.55;;
50789;SDS011;37287;47.554;7.844;2022-10-17T17:25:02;5.43;;;1.80;;
50789;SDS011;37287;47.554;7.844;2022-10-17T17:27:32;2.90;;;1.83;;
50789;SDS011;37287;47.554;7.844;2022-10-17T17:29:59;6.28;;;1.60;;
50789;SDS011;37287;47.554;7.844;2022-10-17T17:32:26;4.35;;;1.90;;
50789;SDS011;37287;47.554;7.844;2022-10-17T17:34:52;2.00;;;1.80;;
50789;SDS011;37287;47.554;7.844;2022-10-17T17:37:19;2.38;;;2.03;;
50789;SDS011;37287;47.554;7.844;2022-10-17T17:39:48;4.00;;;1.67;;